SOF weather

Sofia Airport
Sofia, Sofia Province, Bulgaria

Public forecast

Using degrees Celsius for public forecast. Weather courtesy of forecast.io.

Current aviation weather report (METAR) for Sofia Airport

Retrieved 2020/01/22 22:30 UTC (3 minutes ago):

LBSF 222230Z 23005KT 210V320 6000 NSC M06/M10 Q1024 NOSIG

Aviation forecast (TAF) for Sofia Airport

Retrieved 2020/01/22 18:00 UTC (5 hours ago):

TAF LBSF 221700Z 2218/2318 VRB04KT CAVOK BECMG 2221/2223 30014KT SCT070 TEMPO 2223/2303 30018G28KT